createdAt,value
2023-01-17T00:02:19.586Z,32.83
2023-01-17T00:09:00.125Z,30.30
2023-01-17T00:12:02.518Z,26.88
2023-01-17T00:15:05.524Z,53.63
2023-01-17T00:21:27.788Z,48.72
2023-01-17T00:24:48.558Z,83.38
2023-01-17T00:27:50.409Z,39.70
2023-01-17T00:30:52.700Z,33.05
2023-01-17T00:33:54.503Z,45.80
2023-01-17T00:36:56.345Z,51.55
2023-01-17T00:39:58.228Z,38.00
2023-01-17T00:43:18.653Z,31.85
2023-01-17T00:46:39.415Z,160.20
2023-01-17T00:50:00.076Z,85.57
2023-01-17T00:53:23.975Z,40.30
2023-01-17T00:56:44.381Z,42.95
2023-01-17T01:00:04.821Z,31.65
2023-01-17T01:03:29.541Z,22.23
2023-01-17T01:06:50.339Z,24.55
2023-01-17T01:10:10.681Z,24.48
2023-01-17T01:13:31.021Z,32.40
2023-01-17T01:16:51.687Z,24.50
2023-01-17T01:20:12.298Z,32.58
2023-01-17T01:23:33.024Z,37.72
2023-01-17T01:26:53.169Z,77.10
2023-01-17T01:30:13.513Z,33.92
2023-01-17T01:33:21.500Z,33.25
2023-01-17T01:36:23.477Z,29.17
2023-01-17T01:39:25.357Z,27.23
2023-01-17T01:42:27.309Z,21.25
2023-01-17T01:45:32.260Z,24.65
2023-01-17T01:48:38.428Z,22.35
2023-01-17T01:51:43.360Z,21.45
2023-01-17T01:54:53.409Z,21.17
2023-01-17T01:57:58.779Z,21.33
2023-01-17T02:01:00.953Z,18.38
2023-01-17T02:04:04.198Z,22.10
2023-01-17T02:07:15.429Z,20.58
2023-01-17T02:10:17.470Z,24.80
2023-01-17T02:13:20.881Z,20.87
2023-01-17T02:16:25.705Z,22.88
2023-01-17T02:19:39.902Z,20.58
2023-01-17T02:23:09.520Z,18.42
2023-01-17T02:26:20.523Z,19.35
2023-01-17T02:29:32.556Z,22.65
2023-01-17T02:32:54.212Z,24.88
2023-01-17T02:36:07.856Z,20.70
2023-01-17T02:39:30.119Z,22.48
2023-01-17T02:42:40.441Z,19.73
2023-01-17T02:45:42.938Z,20.45
2023-01-17T02:48:46.389Z,21.92
2023-01-17T02:52:18.579Z,22.17
2023-01-17T02:55:42.270Z,19.83
2023-01-17T02:59:21.128Z,22.65
2023-01-17T03:02:31.476Z,22.08
2023-01-17T03:06:12.619Z,22.02
2023-01-17T03:09:17.275Z,23.88
2023-01-17T03:12:23.122Z,29.35
2023-01-17T03:15:25.059Z,38.47
2023-01-17T03:18:27.318Z,34.53
2023-01-17T03:21:29.428Z,53.17
2023-01-17T03:24:31.315Z,46.57
2023-01-17T03:27:33.325Z,46.03
2023-01-17T03:30:35.336Z,42.33
2023-01-17T03:33:37.238Z,33.38
2023-01-17T03:36:39.182Z,29.02
2023-01-17T03:39:41.161Z,25.90
2023-01-17T03:42:43.300Z,20.13
2023-01-17T03:45:45.333Z,20.07
2023-01-17T03:48:47.543Z,20.80
2023-01-17T03:51:49.457Z,20.63
2023-01-17T03:54:51.509Z,22.38
2023-01-17T03:57:53.369Z,23.00
2023-01-17T04:00:55.329Z,27.88
2023-01-17T04:03:57.258Z,28.38
2023-01-17T04:06:59.198Z,22.35
2023-01-17T04:10:01.090Z,19.20
2023-01-17T04:13:02.968Z,19.02
2023-01-17T04:16:06.223Z,23.45
2023-01-17T04:19:12.558Z,22.65
2023-01-17T04:22:14.537Z,19.95
2023-01-17T04:25:16.437Z,21.58
2023-01-17T04:28:18.274Z,21.85
2023-01-17T04:31:20.278Z,19.17
2023-01-17T04:34:22.325Z,23.87
2023-01-17T04:37:24.290Z,28.03
2023-01-17T04:40:26.630Z,21.95
2023-01-17T04:43:28.506Z,18.80
2023-01-17T04:46:30.652Z,19.42
2023-01-17T04:49:32.557Z,19.07
2023-01-17T04:52:34.483Z,22.27
2023-01-17T04:55:36.390Z,21.58
2023-01-17T04:58:38.352Z,23.85
2023-01-17T05:01:40.347Z,29.52
2023-01-17T05:04:42.300Z,26.17
2023-01-17T05:07:44.151Z,30.98
2023-01-17T05:10:47.174Z,25.05
2023-01-17T05:16:58.736Z,25.35
2023-01-17T05:20:00.602Z,26.85
2023-01-17T05:23:02.598Z,23.02
2023-01-17T05:26:04.531Z,24.77
2023-01-17T05:29:06.744Z,22.48
2023-01-17T05:32:09.006Z,23.88
2023-01-17T05:35:10.917Z,23.15
2023-01-17T05:38:12.848Z,19.58
2023-01-17T05:41:14.796Z,23.70
2023-01-17T05:44:16.685Z,23.35
2023-01-17T05:47:18.539Z,24.98
2023-01-17T05:50:26.270Z,22.17
2023-01-17T05:53:28.442Z,21.27
2023-01-17T05:56:30.377Z,22.58
2023-01-17T05:59:37.437Z,22.63
2023-01-17T06:02:40.295Z,21.80
2023-01-17T06:05:43.105Z,22.50
2023-01-17T06:08:45.026Z,22.15
2023-01-17T06:11:46.966Z,25.02
2023-01-17T06:14:48.940Z,23.40
2023-01-17T06:17:50.832Z,21.48
2023-01-17T06:20:54.791Z,23.30
2023-01-17T06:23:56.707Z,20.90
2023-01-17T06:26:58.667Z,20.92
2023-01-17T06:30:00.582Z,23.35
2023-01-17T06:33:02.647Z,23.67
2023-01-17T06:36:05.007Z,23.50
2023-01-17T06:39:07.252Z,22.70
2023-01-17T06:42:09.169Z,26.55
2023-01-17T06:45:11.615Z,22.15
2023-01-17T06:48:13.716Z,26.08
2023-01-17T06:51:16.125Z,27.50
2023-01-17T06:54:18.985Z,22.88
2023-01-17T06:57:20.908Z,25.25
2023-01-17T07:00:23.137Z,27.15
2023-01-17T07:03:27.356Z,24.80
2023-01-17T07:06:29.365Z,21.98
2023-01-17T07:09:32.226Z,25.15
2023-01-17T07:12:34.143Z,25.13
2023-01-17T07:15:36.093Z,26.83
2023-01-17T07:18:38.071Z,29.90
2023-01-17T07:21:40.512Z,28.38
2023-01-17T07:24:42.438Z,29.15
2023-01-17T07:27:45.732Z,24.48
2023-01-17T07:30:48.071Z,25.83
2023-01-17T07:33:49.970Z,24.60
2023-01-17T07:36:51.996Z,22.70
2023-01-17T07:39:54.636Z,24.87
2023-01-17T07:43:02.495Z,22.20
2023-01-17T07:46:08.075Z,20.25
2023-01-17T07:49:10.073Z,20.80
2023-01-17T07:52:12.095Z,24.00
2023-01-17T07:55:14.126Z,22.63
2023-01-17T07:58:16.116Z,23.45
2023-01-17T08:01:18.167Z,21.42
2023-01-17T08:04:20.191Z,21.30
2023-01-17T08:07:22.091Z,21.80
2023-01-17T08:10:24.048Z,23.50
2023-01-17T08:13:25.892Z,24.40
2023-01-17T08:16:28.866Z,28.02
2023-01-17T08:22:32.606Z,22.33
2023-01-17T08:25:35.417Z,22.70
2023-01-17T08:28:37.397Z,22.55
2023-01-17T08:31:39.331Z,21.92
2023-01-17T08:34:41.392Z,25.40
2023-01-17T08:37:43.370Z,24.95
2023-01-17T08:40:45.216Z,24.85
2023-01-17T08:43:48.272Z,26.90
2023-01-17T08:49:52.731Z,26.05
2023-01-17T08:53:03.474Z,26.08
2023-01-17T08:56:05.881Z,30.27
2023-01-17T08:59:07.759Z,27.48
2023-01-17T09:02:15.033Z,29.05
2023-01-17T09:05:16.993Z,27.25
2023-01-17T09:08:18.863Z,31.50
2023-01-17T09:11:20.810Z,28.00
2023-01-17T09:14:22.719Z,32.65
2023-01-17T09:17:24.780Z,29.38
2023-01-17T09:20:30.173Z,35.20
2023-01-17T09:23:32.137Z,32.25
2023-01-17T09:26:35.535Z,33.63
2023-01-17T09:29:37.363Z,36.63
2023-01-17T09:32:39.294Z,30.27
2023-01-17T09:35:41.369Z,36.43
2023-01-17T09:38:43.687Z,34.90
2023-01-17T09:41:51.286Z,41.38
2023-01-17T09:44:54.234Z,36.58
2023-01-17T09:51:03.290Z,38.05
2023-01-17T09:54:05.730Z,38.63
2023-01-17T09:57:19.088Z,43.95
2023-01-17T10:00:35.796Z,41.25
2023-01-17T10:03:37.776Z,41.00
2023-01-17T10:07:11.398Z,43.63
2023-01-17T10:10:36.227Z,37.25
2023-01-17T10:13:43.220Z,43.97
2023-01-17T10:17:03.854Z,43.08
2023-01-17T10:20:15.285Z,44.15
2023-01-17T10:23:38.303Z,47.38
2023-01-17T10:26:40.268Z,45.97
2023-01-17T10:29:44.745Z,47.20
2023-01-17T10:32:49.526Z,47.40
2023-01-17T10:36:07.826Z,46.50
2023-01-17T10:39:24.868Z,50.28
2023-01-17T10:42:35.872Z,47.88
2023-01-17T10:45:45.068Z,47.40
2023-01-17T10:48:50.926Z,47.33
2023-01-17T10:52:00.429Z,49.35
2023-01-17T10:55:23.857Z,44.28
2023-01-17T10:58:25.907Z,41.72
2023-01-17T11:01:28.025Z,48.70
2023-01-17T11:04:36.711Z,47.27
2023-01-17T11:07:40.140Z,47.05
2023-01-17T11:11:04.424Z,51.55
2023-01-17T11:14:17.495Z,50.05
2023-01-17T11:17:20.050Z,54.40
2023-01-17T11:20:39.853Z,52.35
2023-01-17T11:23:45.603Z,50.42
2023-01-17T11:26:49.609Z,49.05
2023-01-17T11:30:18.111Z,51.78
2023-01-17T11:33:35.432Z,48.20
2023-01-17T11:36:37.388Z,50.80
2023-01-17T11:39:39.389Z,53.03
2023-01-17T11:42:41.327Z,58.15
2023-01-17T11:45:43.289Z,55.53
2023-01-17T11:49:01.471Z,43.15
2023-01-17T11:52:39.152Z,52.13
2023-01-17T11:56:12.055Z,61.50
2023-01-17T11:59:26.309Z,50.42
2023-01-17T12:02:49.771Z,61.38
2023-01-17T12:09:13.797Z,61.55
2023-01-17T12:13:19.668Z,60.72
2023-01-17T12:16:33.504Z,54.05
2023-01-17T12:19:42.391Z,58.20
2023-01-17T12:23:06.480Z,53.17
2023-01-17T12:26:35.212Z,56.60
2023-01-17T12:29:40.095Z,60.50
2023-01-17T12:33:03.729Z,63.63
2023-01-17T12:36:17.781Z,57.53
2023-01-17T12:39:26.204Z,56.47
2023-01-17T12:42:33.235Z,63.35
2023-01-17T12:45:42.779Z,62.88
2023-01-17T12:48:45.245Z,54.20
2023-01-17T12:51:53.203Z,58.30
2023-01-17T12:55:05.728Z,57.65
2023-01-17T12:58:24.918Z,52.25
2023-01-17T13:01:32.260Z,56.15
2023-01-17T13:04:58.047Z,59.15
2023-01-17T13:08:09.481Z,56.58
2023-01-17T13:11:27.953Z,56.60
2023-01-17T13:14:30.078Z,56.53
2023-01-17T13:17:45.010Z,59.20
2023-01-17T13:20:53.818Z,56.42
2023-01-17T13:24:06.021Z,51.40
2023-01-17T13:27:25.418Z,57.20
2023-01-17T13:30:57.410Z,68.78
2023-01-17T13:34:08.350Z,60.55
2023-01-17T13:37:10.268Z,80.47
2023-01-17T13:40:53.605Z,65.13
2023-01-17T13:44:14.297Z,59.20
2023-01-17T13:47:19.003Z,59.85
2023-01-17T13:50:42.138Z,56.55
2023-01-17T13:53:43.983Z,54.05
2023-01-17T13:56:45.880Z,56.40
2023-01-17T13:59:47.871Z,56.63
2023-01-17T14:02:51.822Z,58.90
2023-01-17T14:05:57.174Z,65.68
2023-01-17T14:09:08.086Z,55.55
2023-01-17T14:12:14.177Z,61.78
2023-01-17T14:15:27.177Z,64.43
2023-01-17T14:18:32.136Z,61.08
2023-01-17T14:21:35.658Z,60.17
2023-01-17T14:25:20.179Z,54.55
2023-01-17T14:28:23.223Z,58.47
2023-01-17T14:34:28.752Z,60.47
2023-01-17T14:37:38.761Z,61.55
2023-01-17T14:40:40.722Z,60.00
2023-01-17T14:43:43.624Z,60.72
2023-01-17T14:46:48.889Z,63.17
2023-01-17T14:50:12.079Z,64.50
2023-01-17T14:53:13.947Z,60.25
2023-01-17T15:21:59.780Z,60.03
2023-01-17T15:25:02.687Z,61.90
2023-01-17T15:31:47.490Z,61.63
2023-01-17T15:34:51.223Z,60.92
2023-01-17T15:37:54.939Z,58.88
2023-01-17T15:41:09.069Z,56.22
2023-01-17T15:44:42.704Z,56.15
2023-01-17T15:47:49.224Z,60.70
2023-01-17T15:50:58.974Z,63.80
2023-01-17T15:54:20.866Z,59.30
2023-01-17T15:57:37.196Z,58.55
2023-01-17T16:00:39.662Z,60.72
2023-01-17T16:03:54.107Z,53.35
2023-01-17T16:07:09.365Z,53.00
2023-01-17T16:10:23.111Z,53.17
2023-01-17T16:13:29.786Z,48.25
2023-01-17T16:16:31.893Z,56.22
2023-01-17T16:19:34.908Z,54.77
2023-01-17T16:25:39.150Z,50.72
2023-01-17T16:28:41.065Z,52.08
2023-01-17T16:31:42.984Z,53.53
2023-01-17T16:34:44.856Z,52.70
2023-01-17T16:37:55.512Z,55.92
2023-01-17T16:40:57.485Z,49.45
2023-01-17T16:44:05.013Z,48.72
2023-01-17T16:47:06.946Z,48.67
2023-01-17T16:50:12.298Z,44.17
2023-01-17T16:53:15.300Z,51.80
2023-01-17T16:59:20.062Z,46.92
2023-01-17T17:02:23.228Z,46.03
2023-01-17T17:05:26.648Z,44.88
2023-01-17T17:08:29.599Z,47.58
2023-01-17T17:11:31.743Z,47.72
2023-01-17T17:14:33.729Z,42.37
2023-01-17T17:17:36.743Z,45.90
2023-01-17T17:23:40.371Z,43.33
2023-01-17T17:26:42.409Z,40.45
2023-01-17T17:29:44.375Z,42.13
2023-01-17T17:32:47.727Z,41.53
2023-01-17T17:35:49.673Z,40.35
2023-01-17T17:38:54.758Z,44.67
2023-01-17T17:41:56.666Z,41.30
2023-01-17T17:44:58.591Z,40.45
2023-01-17T17:48:00.525Z,41.88
2023-01-17T17:51:02.969Z,47.80
2023-01-17T17:54:07.751Z,45.50
2023-01-17T17:57:09.945Z,245.48
2023-01-17T18:00:12.381Z,99.22
2023-01-17T18:03:14.725Z,149.20
2023-01-17T18:06:17.521Z,54.63
2023-01-17T18:09:19.519Z,55.88
2023-01-17T18:12:21.463Z,55.70
2023-01-17T18:15:24.275Z,85.45
2023-01-17T18:18:26.371Z,57.42
2023-01-17T18:21:34.466Z,87.27
2023-01-17T18:24:36.302Z,49.97
2023-01-17T18:27:39.840Z,59.40
2023-01-17T18:30:41.680Z,53.58
2023-01-17T18:33:43.657Z,51.42
2023-01-17T18:36:45.642Z,93.63
2023-01-17T18:39:47.598Z,75.63
2023-01-17T18:42:49.687Z,53.63
2023-01-17T18:45:54.539Z,66.87
2023-01-17T18:48:57.296Z,59.75
2023-01-17T18:52:00.147Z,45.40
2023-01-17T18:55:02.182Z,69.93
2023-01-17T18:58:04.118Z,53.40
2023-01-17T19:01:10.325Z,50.13
2023-01-17T19:04:13.901Z,51.58
2023-01-17T19:07:15.990Z,50.65
2023-01-17T19:10:19.885Z,49.77
2023-01-17T19:13:21.823Z,51.70
2023-01-17T19:16:30.061Z,59.65
2023-01-17T19:19:31.926Z,50.47
2023-01-17T19:22:33.805Z,50.55
2023-01-17T19:25:36.420Z,52.08
2023-01-17T19:28:40.682Z,51.10
2023-01-17T19:31:43.628Z,97.75
2023-01-17T19:34:45.648Z,217.32
2023-01-17T19:37:49.452Z,101.93
2023-01-17T19:40:51.859Z,119.65
2023-01-17T19:43:59.818Z,56.08
2023-01-17T19:47:01.768Z,87.60
2023-01-17T19:50:08.357Z,80.90
2023-01-17T19:53:10.263Z,54.90
2023-01-17T19:56:20.869Z,50.97
2023-01-17T19:59:22.811Z,71.25
2023-01-17T20:02:24.914Z,62.40
2023-01-17T20:05:27.044Z,60.58
2023-01-17T20:08:29.002Z,85.83
2023-01-17T20:11:30.960Z,63.60
2023-01-17T20:14:32.833Z,155.85
2023-01-17T20:17:34.770Z,130.52
2023-01-17T20:20:41.362Z,160.73
2023-01-17T20:23:48.723Z,106.55
2023-01-17T20:26:51.418Z,147.48
2023-01-17T20:29:53.431Z,78.38
2023-01-17T20:32:56.676Z,126.47
2023-01-17T20:36:10.756Z,74.82
2023-01-17T20:39:14.766Z,57.88
2023-01-17T20:42:16.665Z,75.70
2023-01-17T20:45:18.598Z,82.25
2023-01-17T20:48:22.434Z,117.63
2023-01-17T20:51:26.503Z,68.63
2023-01-17T20:54:28.480Z,65.18
2023-01-17T20:57:31.409Z,77.60
2023-01-17T21:03:40.288Z,50.22
2023-01-17T21:06:43.697Z,55.35
2023-01-17T21:09:45.601Z,53.55
2023-01-17T21:12:47.501Z,52.40
2023-01-17T21:15:49.911Z,49.53
2023-01-17T21:18:52.321Z,43.92
2023-01-17T21:21:56.284Z,52.30
2023-01-17T21:24:58.887Z,43.53
2023-01-17T21:28:00.824Z,44.05
2023-01-17T21:31:20.519Z,50.03
2023-01-17T21:34:25.288Z,46.28
2023-01-17T21:37:27.417Z,53.63
2023-01-17T21:40:29.369Z,46.67
2023-01-17T21:43:31.389Z,47.45
2023-01-17T21:46:36.963Z,47.20
2023-01-17T21:49:38.857Z,56.90
2023-01-17T21:52:40.835Z,51.58
2023-01-17T21:56:00.870Z,48.38
2023-01-17T21:59:02.800Z,52.70
2023-01-17T22:02:04.802Z,47.13
2023-01-17T22:05:08.052Z,45.38
2023-01-17T22:08:12.782Z,43.72
2023-01-17T22:11:17.549Z,46.58
2023-01-17T22:14:19.630Z,52.42
2023-01-17T22:17:21.600Z,51.37
2023-01-17T22:20:23.971Z,51.28
2023-01-17T22:23:25.923Z,46.70
2023-01-17T22:26:31.555Z,54.30
2023-01-17T22:29:34.065Z,58.95
2023-01-17T22:32:35.931Z,60.78
2023-01-17T22:35:37.821Z,56.58
2023-01-17T22:38:40.812Z,53.90
2023-01-17T22:44:44.601Z,50.40
2023-01-17T22:47:46.541Z,46.65
2023-01-17T22:50:48.445Z,45.92
2023-01-17T22:53:52.664Z,42.75
2023-01-17T22:56:54.631Z,42.58
2023-01-17T22:59:56.572Z,43.15
2023-01-17T23:02:59.022Z,40.67
2023-01-17T23:06:13.842Z,44.83
2023-01-17T23:09:17.343Z,42.00
2023-01-17T23:12:19.288Z,43.65
2023-01-17T23:15:39.547Z,43.42
2023-01-17T23:19:00.315Z,40.08
2023-01-17T23:22:16.448Z,38.25
2023-01-17T23:25:18.416Z,45.08
2023-01-17T23:28:20.990Z,41.63
2023-01-17T23:31:23.518Z,41.20
2023-01-17T23:34:25.522Z,38.78
2023-01-17T23:37:49.354Z,39.88
2023-01-17T23:41:20.345Z,36.55
2023-01-17T23:44:23.563Z,38.75
2023-01-17T23:47:25.535Z,41.05
2023-01-17T23:50:27.714Z,39.03
2023-01-17T23:53:29.667Z,41.25
2023-01-17T23:56:31.661Z,38.45
2023-01-17T23:59:33.761Z,40.70
